createdAt,value
2023-03-03T00:02:12.763Z,9.64
2023-03-03T00:04:41.342Z,9.35
2023-03-03T00:07:09.314Z,9.31
2023-03-03T00:09:37.780Z,9.11
2023-03-03T00:12:25.065Z,9.17
2023-03-03T00:14:54.202Z,9.32
2023-03-03T00:17:25.096Z,9.29
2023-03-03T00:19:53.643Z,9.52
2023-03-03T00:22:32.229Z,9.19
2023-03-03T00:25:31.937Z,9.26
2023-03-03T00:28:31.088Z,9.14
2023-03-03T00:31:01.807Z,9.36
2023-03-03T00:33:35.534Z,9.27
2023-03-03T00:36:16.493Z,9.29
2023-03-03T00:38:44.447Z,9.37
2023-03-03T00:41:27.945Z,9.23
2023-03-03T00:43:55.944Z,9.08
2023-03-03T00:46:24.517Z,9.11
2023-03-03T00:48:53.082Z,9.17
2023-03-03T00:51:28.539Z,9.16
2023-03-03T00:53:58.417Z,9.19
2023-03-03T00:56:27.930Z,9.06
2023-03-03T00:58:56.146Z,9.38
2023-03-03T01:01:25.992Z,9.48
2023-03-03T01:03:55.562Z,9.26
2023-03-03T01:06:24.018Z,9.27
2023-03-03T01:08:52.105Z,9.06
2023-03-03T01:11:24.175Z,9.04
2023-03-03T01:13:53.628Z,8.96
2023-03-03T01:16:22.040Z,8.90
2023-03-03T01:18:51.775Z,9.08
2023-03-03T01:21:20.157Z,8.78
2023-03-03T01:23:48.117Z,9.10
2023-03-03T01:26:16.826Z,9.25
2023-03-03T01:28:44.793Z,8.96
2023-03-03T01:31:13.871Z,8.94
2023-03-03T01:33:42.143Z,9.16
2023-03-03T01:36:10.569Z,9.08
2023-03-03T01:38:39.462Z,9.12
2023-03-03T01:41:07.722Z,9.12
2023-03-03T01:43:35.726Z,9.17
2023-03-03T01:46:03.969Z,9.09
2023-03-03T01:48:39.240Z,9.02
2023-03-03T01:51:07.620Z,9.01
2023-03-03T01:53:43.075Z,9.06
2023-03-03T01:56:11.725Z,9.02
2023-03-03T01:58:49.766Z,8.80
2023-03-03T02:01:22.476Z,9.05
2023-03-03T02:03:53.599Z,8.93
2023-03-03T02:06:30.180Z,8.88
2023-03-03T02:09:08.207Z,8.91
2023-03-03T02:11:38.449Z,9.05
2023-03-03T02:14:06.354Z,8.95
2023-03-03T02:16:34.697Z,8.94
2023-03-03T02:19:05.694Z,8.70
2023-03-03T02:21:33.964Z,8.76
2023-03-03T02:24:19.964Z,8.85
2023-03-03T02:26:48.936Z,8.83
2023-03-03T02:29:16.963Z,9.06
2023-03-03T02:31:45.843Z,9.06
2023-03-03T02:34:13.798Z,9.00
2023-03-03T02:36:42.852Z,8.83
2023-03-03T02:39:23.768Z,8.89
2023-03-03T02:42:08.490Z,8.85
2023-03-03T02:44:42.756Z,8.96
2023-03-03T02:47:11.049Z,8.87
2023-03-03T02:49:39.780Z,8.81
2023-03-03T02:52:10.873Z,8.94
2023-03-03T02:54:41.752Z,8.67
2023-03-03T02:57:10.190Z,8.83
2023-03-03T02:59:38.159Z,8.72
2023-03-03T03:02:13.219Z,8.69
2023-03-03T03:04:42.357Z,8.80
2023-03-03T03:07:12.297Z,8.57
2023-03-03T03:09:40.788Z,8.44
2023-03-03T03:12:09.011Z,8.65
2023-03-03T03:14:37.571Z,8.77
2023-03-03T03:17:07.459Z,8.79
2023-03-03T03:19:35.454Z,8.91
2023-03-03T03:22:04.783Z,8.70
2023-03-03T03:24:35.739Z,8.61
2023-03-03T03:27:06.958Z,8.49
2023-03-03T03:29:35.309Z,8.72
2023-03-03T03:32:03.837Z,8.76
2023-03-03T03:34:31.848Z,8.70
2023-03-03T03:37:00.220Z,8.55
2023-03-03T03:39:29.929Z,8.31
2023-03-03T03:41:58.486Z,8.34
2023-03-03T03:44:26.435Z,8.41
2023-03-03T03:46:56.054Z,8.32
2023-03-03T03:49:24.180Z,8.26
2023-03-03T03:51:54.709Z,8.37
2023-03-03T03:54:26.115Z,8.32
2023-03-03T03:56:55.376Z,8.38
2023-03-03T03:59:24.094Z,8.39
2023-03-03T04:01:52.717Z,8.26
2023-03-03T04:04:22.515Z,8.28
2023-03-03T04:06:51.088Z,8.29
2023-03-03T04:09:20.329Z,8.55
2023-03-03T04:11:49.584Z,8.53
2023-03-03T04:14:18.543Z,8.59
2023-03-03T04:16:46.764Z,8.37
2023-03-03T04:19:14.787Z,8.58
2023-03-03T04:21:44.454Z,8.28
2023-03-03T04:24:12.411Z,8.40
2023-03-03T04:26:40.946Z,8.16
2023-03-03T04:29:10.984Z,8.27
2023-03-03T04:31:39.882Z,8.47
2023-03-03T04:34:10.107Z,8.37
2023-03-03T04:36:38.571Z,8.01
2023-03-03T04:39:06.543Z,8.12
2023-03-03T04:41:35.492Z,8.08
2023-03-03T04:44:03.647Z,7.88
2023-03-03T04:46:31.906Z,7.91
2023-03-03T04:49:00.130Z,7.95
2023-03-03T04:51:28.842Z,8.08
2023-03-03T04:53:56.840Z,7.93
2023-03-03T04:56:25.824Z,8.03
2023-03-03T04:58:53.725Z,8.02
2023-03-03T05:01:22.142Z,8.01
2023-03-03T05:03:51.329Z,8.00
2023-03-03T05:06:19.770Z,8.02
2023-03-03T05:08:47.861Z,7.92
2023-03-03T05:11:16.398Z,8.07
2023-03-03T05:13:44.736Z,8.03
2023-03-03T05:16:13.316Z,8.01
2023-03-03T05:18:45.772Z,8.04
2023-03-03T05:21:14.235Z,7.85
2023-03-03T05:23:42.173Z,7.85
2023-03-03T05:26:10.454Z,7.85
2023-03-03T05:28:38.416Z,7.82
2023-03-03T05:31:06.742Z,7.99
2023-03-03T05:33:34.762Z,7.85
2023-03-03T05:36:02.957Z,7.88
2023-03-03T05:38:30.876Z,7.87
2023-03-03T05:40:59.213Z,8.09
2023-03-03T05:43:27.195Z,7.74
2023-03-03T05:45:59.356Z,7.63
2023-03-03T05:48:27.882Z,7.71
2023-03-03T05:50:59.808Z,7.75
2023-03-03T05:53:29.125Z,8.04
2023-03-03T05:55:57.826Z,8.12
2023-03-03T05:58:25.892Z,7.95
2023-03-03T06:00:54.253Z,7.51
2023-03-03T06:03:22.494Z,7.86
2023-03-03T06:05:50.901Z,7.80
2023-03-03T06:08:18.903Z,7.79
2023-03-03T06:10:47.249Z,7.87
2023-03-03T06:13:16.264Z,7.93
2023-03-03T06:15:44.760Z,7.82
2023-03-03T06:18:12.711Z,7.77
2023-03-03T06:20:40.970Z,8.07
2023-03-03T06:23:08.932Z,7.89
2023-03-03T06:25:40.243Z,7.85
2023-03-03T06:28:08.247Z,7.96
2023-03-03T06:30:36.637Z,8.03
2023-03-03T06:33:04.579Z,8.20
2023-03-03T06:35:33.064Z,8.20
2023-03-03T06:38:01.075Z,8.18
2023-03-03T06:40:29.566Z,8.28
2023-03-03T06:42:57.658Z,8.11
2023-03-03T06:45:25.966Z,8.14
2023-03-03T06:47:53.909Z,8.51
2023-03-03T06:50:22.542Z,8.75
2023-03-03T06:52:51.857Z,9.18
2023-03-03T06:55:23.492Z,9.07
2023-03-03T06:57:51.528Z,9.31
2023-03-03T07:00:30.940Z,9.67
2023-03-03T07:03:11.697Z,9.69
2023-03-03T07:05:40.057Z,10.14
2023-03-03T07:08:20.227Z,10.05
2023-03-03T07:10:49.896Z,10.23
2023-03-03T07:13:26.924Z,10.55
2023-03-03T07:15:57.494Z,10.60
2023-03-03T07:18:34.023Z,10.71
2023-03-03T07:21:23.954Z,10.94
2023-03-03T07:23:54.985Z,11.21
2023-03-03T07:26:33.404Z,11.30
2023-03-03T07:29:22.748Z,11.41
2023-03-03T07:31:52.134Z,11.47
2023-03-03T07:34:27.318Z,11.39
2023-03-03T07:37:00.503Z,11.50
2023-03-03T07:39:40.628Z,11.32
2023-03-03T07:42:35.279Z,11.62
2023-03-03T07:45:32.751Z,12.03
2023-03-03T07:48:24.433Z,12.22
2023-03-03T07:50:53.079Z,12.38
2023-03-03T07:53:29.415Z,12.45
2023-03-03T07:55:57.329Z,13.25
2023-03-03T07:58:38.535Z,13.31
2023-03-03T08:01:40.096Z,13.26
2023-03-03T08:04:25.406Z,13.37
2023-03-03T08:06:56.524Z,13.76
2023-03-03T08:09:31.347Z,13.80
2023-03-03T08:12:08.139Z,13.19
2023-03-03T08:14:39.000Z,12.84
2023-03-03T08:17:25.396Z,12.95
2023-03-03T08:19:56.409Z,13.62
2023-03-03T08:22:37.274Z,13.39
2023-03-03T08:25:05.744Z,13.42
2023-03-03T08:27:33.746Z,13.31
2023-03-03T08:30:02.127Z,13.06
2023-03-03T08:32:30.350Z,13.39
2023-03-03T08:34:58.689Z,13.65
2023-03-03T08:37:26.667Z,13.65
2023-03-03T08:39:54.976Z,13.81
2023-03-03T08:42:22.990Z,14.04
2023-03-03T08:44:51.300Z,14.21
2023-03-03T08:47:19.426Z,14.18
2023-03-03T08:49:47.833Z,14.19
2023-03-03T08:52:15.888Z,14.36
2023-03-03T08:54:44.622Z,14.60
2023-03-03T08:57:12.560Z,14.96
2023-03-03T08:59:41.091Z,14.86
2023-03-03T09:02:09.402Z,14.99
2023-03-03T09:04:37.704Z,15.34
2023-03-03T09:07:05.643Z,15.81
2023-03-03T09:09:34.002Z,15.76
2023-03-03T09:12:15.209Z,15.77
2023-03-03T09:14:43.858Z,15.94
2023-03-03T09:17:30.659Z,16.25
2023-03-03T09:20:11.569Z,16.17
2023-03-03T09:22:39.398Z,15.94
2023-03-03T09:25:22.177Z,15.63
2023-03-03T09:27:52.999Z,15.94
2023-03-03T09:30:27.287Z,16.34
2023-03-03T09:32:58.307Z,16.49
2023-03-03T09:35:29.349Z,16.42
2023-03-03T09:37:57.221Z,16.84
2023-03-03T09:41:16.636Z,16.65
2023-03-03T09:44:17.487Z,16.90
2023-03-03T09:47:06.845Z,16.35
2023-03-03T09:49:38.937Z,16.81
2023-03-03T09:52:39.012Z,15.92
2023-03-03T09:55:25.469Z,16.33
2023-03-03T09:58:12.824Z,15.58
2023-03-03T10:01:02.407Z,15.25
2023-03-03T10:03:42.897Z,15.88
2023-03-03T10:06:33.479Z,16.17
2023-03-03T10:09:19.947Z,16.71
2023-03-03T10:12:00.099Z,16.53
2023-03-03T10:15:11.213Z,16.99
2023-03-03T10:17:54.019Z,16.84
2023-03-03T10:20:48.978Z,17.19
2023-03-03T10:23:37.341Z,17.15
2023-03-03T10:26:38.394Z,17.77
2023-03-03T10:29:38.276Z,17.81
2023-03-03T10:32:33.215Z,18.09
2023-03-03T10:35:14.436Z,18.15
2023-03-03T10:37:45.344Z,18.30
2023-03-03T10:40:41.626Z,18.15
2023-03-03T10:43:32.364Z,17.42
2023-03-03T10:46:10.403Z,16.77
2023-03-03T10:48:44.968Z,17.07
2023-03-03T10:51:34.706Z,17.73
2023-03-03T10:54:24.689Z,17.00
2023-03-03T10:57:20.187Z,17.88
2023-03-03T11:00:19.095Z,17.48
2023-03-03T11:03:04.766Z,18.39
2023-03-03T11:06:00.216Z,17.52
2023-03-03T11:08:46.489Z,16.87
2023-03-03T11:11:41.293Z,17.06
2023-03-03T11:14:32.490Z,17.24
2023-03-03T11:17:49.657Z,18.22
2023-03-03T11:20:29.391Z,18.68
2023-03-03T11:23:00.178Z,17.80
2023-03-03T11:25:34.448Z,18.13
2023-03-03T11:28:15.425Z,17.90
2023-03-03T11:31:02.109Z,17.65
2023-03-03T11:33:52.525Z,18.25
2023-03-03T11:36:39.102Z,18.61
2023-03-03T11:39:13.998Z,17.53
2023-03-03T11:41:58.685Z,18.06
2023-03-03T11:44:40.749Z,18.41
2023-03-03T11:47:31.529Z,18.65
2023-03-03T11:50:08.812Z,18.50
2023-03-03T11:53:00.772Z,17.44
2023-03-03T11:55:37.951Z,18.20
2023-03-03T11:58:16.038Z,18.38
2023-03-03T12:00:51.467Z,18.80
2023-03-03T12:03:26.899Z,18.93
2023-03-03T12:06:04.056Z,19.36
2023-03-03T12:09:00.033Z,19.48
2023-03-03T12:11:54.185Z,18.05
2023-03-03T12:14:45.048Z,18.83
2023-03-03T12:17:31.705Z,18.41
2023-03-03T12:20:14.451Z,18.26
2023-03-03T12:23:06.714Z,19.10
2023-03-03T12:25:45.716Z,19.80
2023-03-03T12:28:21.237Z,19.28
2023-03-03T12:31:04.706Z,19.27
2023-03-03T12:34:11.560Z,18.91
2023-03-03T12:36:47.878Z,18.88
2023-03-03T12:39:41.539Z,19.89
2023-03-03T12:42:14.561Z,20.23
2023-03-03T12:45:13.772Z,20.38
2023-03-03T12:47:49.482Z,19.20
2023-03-03T12:50:27.715Z,20.16
2023-03-03T12:53:38.222Z,19.85
2023-03-03T12:56:09.177Z,19.57
2023-03-03T12:58:36.969Z,19.64
2023-03-03T13:01:28.432Z,19.43
2023-03-03T13:04:12.376Z,19.42
2023-03-03T13:07:05.085Z,19.64
2023-03-03T13:10:06.163Z,19.46
2023-03-03T13:12:43.104Z,19.42
2023-03-03T13:15:31.533Z,19.71
2023-03-03T13:18:19.189Z,20.48
2023-03-03T13:20:56.147Z,20.52
2023-03-03T13:23:38.504Z,21.37
2023-03-03T13:26:17.220Z,22.01
2023-03-03T13:29:01.946Z,21.66
2023-03-03T13:31:37.755Z,21.95
2023-03-03T13:34:09.147Z,22.35
2023-03-03T13:36:54.394Z,22.94
2023-03-03T13:39:28.440Z,22.36
2023-03-03T13:42:19.881Z,22.75
2023-03-03T13:44:50.938Z,22.33
2023-03-03T13:47:42.167Z,22.09
2023-03-03T13:50:28.631Z,21.85
2023-03-03T13:53:22.191Z,21.41
2023-03-03T13:56:15.115Z,21.50
2023-03-03T13:58:49.075Z,21.83
2023-03-03T14:01:25.057Z,22.09
2023-03-03T14:04:11.418Z,22.25
2023-03-03T14:06:43.106Z,22.34
2023-03-03T14:09:34.197Z,22.04
2023-03-03T14:12:17.598Z,20.99
2023-03-03T14:15:09.932Z,21.62
2023-03-03T14:18:02.719Z,22.17
2023-03-03T14:20:32.426Z,22.03
2023-03-03T14:23:27.849Z,22.02
2023-03-03T14:26:00.724Z,22.18
2023-03-03T14:28:30.489Z,21.62
2023-03-03T14:30:59.082Z,21.74
2023-03-03T14:33:31.748Z,22.27
2023-03-03T14:35:59.574Z,22.21
2023-03-03T14:38:33.418Z,22.01
2023-03-03T14:41:18.844Z,21.97
2023-03-03T14:44:20.227Z,21.32
2023-03-03T14:47:03.706Z,21.15
2023-03-03T14:49:33.174Z,21.21
2023-03-03T14:52:19.918Z,20.70
2023-03-03T14:55:00.929Z,20.23
2023-03-03T14:57:47.037Z,20.20
2023-03-03T15:00:15.192Z,21.06
2023-03-03T15:02:56.241Z,21.23
2023-03-03T15:05:27.348Z,21.47
2023-03-03T15:08:09.161Z,21.26
2023-03-03T15:10:40.544Z,21.45
2023-03-03T15:13:20.476Z,21.49
2023-03-03T15:16:19.629Z,22.49
2023-03-03T15:19:13.818Z,22.05
2023-03-03T15:22:00.620Z,21.25
2023-03-03T15:24:41.647Z,20.98
2023-03-03T15:27:21.798Z,20.82
2023-03-03T15:29:58.480Z,20.71
2023-03-03T15:32:39.066Z,20.27
2023-03-03T15:35:20.438Z,20.40
2023-03-03T15:38:11.625Z,20.16
2023-03-03T15:40:49.748Z,20.53
2023-03-03T15:43:25.347Z,20.66
2023-03-03T15:46:12.386Z,19.70
2023-03-03T15:48:40.376Z,19.30
2023-03-03T15:52:02.700Z,18.86
2023-03-03T15:55:12.367Z,18.82
2023-03-03T15:57:46.178Z,18.65
2023-03-03T16:00:41.869Z,18.71
2023-03-03T16:03:17.516Z,18.77
2023-03-03T16:06:01.711Z,19.08
2023-03-03T16:08:53.684Z,18.73
2023-03-03T16:11:29.068Z,18.58
2023-03-03T16:14:11.002Z,18.34
2023-03-03T16:16:53.576Z,18.24
2023-03-03T16:19:45.452Z,18.23
2023-03-03T16:22:24.891Z,18.07
2023-03-03T16:25:20.301Z,17.99
2023-03-03T16:27:59.219Z,17.97
2023-03-03T16:30:40.237Z,18.19
2023-03-03T16:33:23.212Z,18.27
2023-03-03T16:36:27.235Z,18.06
2023-03-03T16:39:40.965Z,17.94
2023-03-03T16:42:26.821Z,17.70
2023-03-03T16:45:21.752Z,17.66
2023-03-03T16:47:53.749Z,17.39
2023-03-03T16:50:21.801Z,17.69
2023-03-03T16:53:23.630Z,17.40
2023-03-03T16:56:09.535Z,17.28
2023-03-03T16:58:42.531Z,17.20
2023-03-03T17:01:33.610Z,17.15
2023-03-03T17:04:05.504Z,17.13
2023-03-03T17:06:59.554Z,17.29
2023-03-03T17:10:06.085Z,16.96
2023-03-03T17:13:11.545Z,17.02
2023-03-03T17:15:57.209Z,17.03
2023-03-03T17:19:00.420Z,16.92
2023-03-03T17:21:36.783Z,16.77
2023-03-03T17:24:23.341Z,16.64
2023-03-03T17:27:04.329Z,16.54
2023-03-03T17:29:51.074Z,16.37
2023-03-03T17:32:24.936Z,16.33
2023-03-03T17:35:14.606Z,16.17
2023-03-03T17:38:00.732Z,16.11
2023-03-03T17:40:44.299Z,16.06
2023-03-03T17:43:28.603Z,16.05
2023-03-03T17:46:01.958Z,16.13
2023-03-03T17:48:39.581Z,15.88
2023-03-03T17:51:29.707Z,16.05
2023-03-03T17:54:08.705Z,16.02
2023-03-03T17:56:40.200Z,15.87
2023-03-03T17:59:42.370Z,15.67
2023-03-03T18:02:33.371Z,15.63
2023-03-03T18:05:26.038Z,15.58
2023-03-03T18:08:09.831Z,15.67
2023-03-03T18:10:59.472Z,15.73
2023-03-03T18:14:02.985Z,15.53
2023-03-03T18:16:58.598Z,15.36
2023-03-03T18:19:49.344Z,15.18
2023-03-03T18:22:24.669Z,15.11
2023-03-03T18:24:52.839Z,15.12
2023-03-03T18:27:43.099Z,14.87
2023-03-03T18:30:17.702Z,14.89
2023-03-03T18:33:01.478Z,14.75
2023-03-03T18:35:38.688Z,14.83
2023-03-03T18:38:19.161Z,14.61
2023-03-03T18:40:52.030Z,14.77
2023-03-03T18:43:44.873Z,14.64
2023-03-03T18:46:24.970Z,14.66
2023-03-03T18:49:06.330Z,14.69
2023-03-03T18:51:34.634Z,14.68
2023-03-03T18:54:16.537Z,14.77
2023-03-03T18:56:53.832Z,14.72
2023-03-03T18:59:30.556Z,14.62
2023-03-03T19:02:08.222Z,14.20
2023-03-03T19:04:39.119Z,14.54
2023-03-03T19:07:16.562Z,14.27
2023-03-03T19:09:50.738Z,14.02
2023-03-03T19:12:39.707Z,14.14
2023-03-03T19:15:29.552Z,14.33
2023-03-03T19:18:01.772Z,13.91
2023-03-03T19:20:42.346Z,13.95
2023-03-03T19:23:37.111Z,13.84
2023-03-03T19:26:23.766Z,13.95
2023-03-03T19:29:10.001Z,13.82
2023-03-03T19:31:49.571Z,13.64
2023-03-03T19:34:44.538Z,13.50
2023-03-03T19:37:37.158Z,13.48
2023-03-03T19:40:32.184Z,13.62
2023-03-03T19:43:17.062Z,13.57
2023-03-03T19:45:47.876Z,13.52
2023-03-03T19:48:24.026Z,13.42
2023-03-03T19:51:10.323Z,13.64
2023-03-03T19:53:44.073Z,13.57
2023-03-03T19:56:24.243Z,13.43
2023-03-03T19:59:03.606Z,13.49
2023-03-03T20:02:03.884Z,13.63
2023-03-03T20:04:53.396Z,13.35
2023-03-03T20:07:42.974Z,13.22
2023-03-03T20:10:29.128Z,13.10
2023-03-03T20:13:21.943Z,12.97
2023-03-03T20:16:20.780Z,13.09
2023-03-03T20:19:16.403Z,12.98
2023-03-03T20:22:08.602Z,12.99
2023-03-03T20:24:55.804Z,12.87
2023-03-03T20:27:58.148Z,12.88
2023-03-03T20:30:26.523Z,13.11
2023-03-03T20:33:02.573Z,12.98
2023-03-03T20:35:52.579Z,13.01
2023-03-03T20:38:33.148Z,12.84
2023-03-03T20:41:07.233Z,12.72
2023-03-03T20:44:01.061Z,12.73
2023-03-03T20:46:44.595Z,12.68
2023-03-03T20:49:28.364Z,12.62
2023-03-03T20:52:03.892Z,12.58
2023-03-03T20:54:50.957Z,12.66
2023-03-03T20:57:36.702Z,12.83
2023-03-03T21:00:11.937Z,12.88
2023-03-03T21:02:41.197Z,12.67
2023-03-03T21:05:10.314Z,12.81
2023-03-03T21:07:38.232Z,12.97
2023-03-03T21:10:13.699Z,12.81
2023-03-03T21:12:41.612Z,12.77
2023-03-03T21:15:22.413Z,12.69
2023-03-03T21:17:50.441Z,12.95
2023-03-03T21:20:25.473Z,12.89
2023-03-03T21:22:54.359Z,12.95
2023-03-03T21:25:40.372Z,12.94
2023-03-03T21:28:15.561Z,13.12
2023-03-03T21:31:02.791Z,12.82
2023-03-03T21:33:42.655Z,12.97
2023-03-03T21:36:11.424Z,12.81
2023-03-03T21:38:39.758Z,13.11
2023-03-03T21:41:08.002Z,12.96
2023-03-03T21:43:40.795Z,12.97
2023-03-03T21:46:08.856Z,12.83
2023-03-03T21:48:40.203Z,13.19
2023-03-03T21:51:08.402Z,12.93
2023-03-03T21:53:36.034Z,12.95
2023-03-03T21:56:03.934Z,13.25
2023-03-03T21:58:31.454Z,13.18
2023-03-03T22:00:59.365Z,13.19
2023-03-03T22:03:27.022Z,13.02
2023-03-03T22:05:54.965Z,12.85
2023-03-03T22:08:25.495Z,12.90
2023-03-03T22:10:56.505Z,12.97
2023-03-03T22:13:25.056Z,12.71
2023-03-03T22:15:53.455Z,12.95
2023-03-03T22:18:21.216Z,12.87
2023-03-03T22:20:50.654Z,12.92
2023-03-03T22:23:19.469Z,12.72
2023-03-03T22:25:48.237Z,12.90
2023-03-03T22:28:15.812Z,12.79
2023-03-03T22:30:43.987Z,12.90
2023-03-03T22:33:11.570Z,12.86
2023-03-03T22:35:39.839Z,13.02
2023-03-03T22:38:07.576Z,13.13
2023-03-03T22:40:35.433Z,12.96
2023-03-03T22:43:02.937Z,12.78
2023-03-03T22:45:30.867Z,12.84
2023-03-03T22:47:58.426Z,12.60
2023-03-03T22:50:26.492Z,12.76
2023-03-03T22:52:55.432Z,12.78
2023-03-03T22:55:23.296Z,12.78
2023-03-03T22:57:50.858Z,12.76
2023-03-03T23:00:18.952Z,12.76
2023-03-03T23:02:46.412Z,12.62
2023-03-03T23:05:14.251Z,12.71
2023-03-03T23:07:42.077Z,12.72
2023-03-03T23:10:10.372Z,12.86
2023-03-03T23:12:38.180Z,12.73
2023-03-03T23:15:13.291Z,12.50
2023-03-03T23:17:41.998Z,12.45
2023-03-03T23:20:11.212Z,12.67
2023-03-03T23:22:38.824Z,12.68
2023-03-03T23:25:07.058Z,12.69
2023-03-03T23:27:34.876Z,12.73
2023-03-03T23:30:03.089Z,12.50
2023-03-03T23:32:30.733Z,12.48
2023-03-03T23:34:58.700Z,12.33
2023-03-03T23:37:26.349Z,12.27
2023-03-03T23:39:54.149Z,12.21
2023-03-03T23:42:21.667Z,12.15
2023-03-03T23:44:49.705Z,12.21
2023-03-03T23:47:17.348Z,12.20
2023-03-03T23:49:45.338Z,12.30
2023-03-03T23:52:12.891Z,12.18
2023-03-03T23:54:40.658Z,12.16
2023-03-03T23:57:08.338Z,12.13
2023-03-03T23:59:36.237Z,11.98
